MDSD - Las Americas
MDSD 080400Z 02004KT 9999 FEW017CB FEW018 SCT300 26/25 Q1015 CB/E/SE/S
Observed:
Wind:
visibility:
Flight Rules:
Cloud Levels:
Temperature:
Humidity:
Pressure: